sensor_id;sensor_type;location;lat;lon;timestamp;pressure;altitude;pressure_sealevel;temperature;humidity
61761;BME280;47664;51.660;-0.100;2023-04-03T00:00:56;102456.05;;;5.47;50.37
61761;BME280;47664;51.660;-0.100;2023-04-03T00:03:23;102456.68;;;5.05;51.05
61761;BME280;47664;51.660;-0.100;2023-04-03T00:05:50;102454.63;;;5.19;50.74
61761;BME280;47664;51.660;-0.100;2023-04-03T00:08:17;102454.89;;;4.89;50.33
61761;BME280;47664;51.660;-0.100;2023-04-03T00:10:44;102452.91;;;5.33;50.37
61761;BME280;47664;51.660;-0.100;2023-04-03T00:13:11;102453.14;;;4.73;50.09
61761;BME280;47664;51.660;-0.100;2023-04-03T00:15:38;102457.57;;;5.57;49.88
61761;BME280;47664;51.660;-0.100;2023-04-03T00:18:07;102454.50;;;4.74;50.06
61761;BME280;47664;51.660;-0.100;2023-04-03T00:20:34;102455.86;;;5.28;49.89
61761;BME280;47664;51.660;-0.100;2023-04-03T00:23:03;102454.64;;;4.98;49.74
61761;BME280;47664;51.660;-0.100;2023-04-03T00:25:30;102452.11;;;5.15;49.74
61761;BME280;47664;51.660;-0.100;2023-04-03T00:27:57;102451.22;;;5.57;49.76
61761;BME280;47664;51.660;-0.100;2023-04-03T00:30:25;102448.96;;;5.30;49.81
61761;BME280;47664;51.660;-0.100;2023-04-03T00:32:53;102448.55;;;5.47;49.83
61761;BME280;47664;51.660;-0.100;2023-04-03T00:35:22;102447.79;;;5.22;50.02
61761;BME280;47664;51.660;-0.100;2023-04-03T00:37:52;102445.77;;;5.17;49.68
61761;BME280;47664;51.660;-0.100;2023-04-03T00:40:20;102446.93;;;5.10;49.73
61761;BME280;47664;51.660;-0.100;2023-04-03T00:42:52;102449.88;;;5.69;49.61
61761;BME280;47664;51.660;-0.100;2023-04-03T00:45:29;102446.28;;;5.00;49.86
61761;BME280;47664;51.660;-0.100;2023-04-03T00:47:57;102444.80;;;5.39;50.04
61761;BME280;47664;51.660;-0.100;2023-04-03T00:50:24;102442.34;;;5.00;50.19
61761;BME280;47664;51.660;-0.100;2023-04-03T00:52:52;102441.22;;;5.32;50.24
61761;BME280;47664;51.660;-0.100;2023-04-03T00:55:20;102440.34;;;4.94;50.32
61761;BME280;47664;51.660;-0.100;2023-04-03T00:57:48;102440.27;;;5.39;50.50
61761;BME280;47664;51.660;-0.100;2023-04-03T01:00:19;102437.26;;;4.60;50.59
61761;BME280;47664;51.660;-0.100;2023-04-03T01:02:46;102435.11;;;5.04;50.55
61761;BME280;47664;51.660;-0.100;2023-04-03T01:05:16;102434.01;;;4.65;50.74
61761;BME280;47664;51.660;-0.100;2023-04-03T01:07:45;102432.71;;;5.20;50.75
61761;BME280;47664;51.660;-0.100;2023-04-03T01:10:15;102432.75;;;4.23;51.47
61761;BME280;47664;51.660;-0.100;2023-04-03T01:12:45;102431.28;;;4.76;51.64
61761;BME280;47664;51.660;-0.100;2023-04-03T01:15:16;102431.35;;;4.49;51.42
61761;BME280;47664;51.660;-0.100;2023-04-03T01:17:46;102435.22;;;4.71;51.60
61761;BME280;47664;51.660;-0.100;2023-04-03T01:20:41;102431.59;;;4.26;51.86
61761;BME280;47664;51.660;-0.100;2023-04-03T01:23:40;102431.58;;;3.76;52.54
61761;BME280;47664;51.660;-0.100;2023-04-03T01:26:10;102428.99;;;3.86;52.55
61761;BME280;47664;51.660;-0.100;2023-04-03T01:28:39;102428.34;;;4.62;52.45
61761;BME280;47664;51.660;-0.100;2023-04-03T01:31:14;102425.60;;;3.72;52.66
61761;BME280;47664;51.660;-0.100;2023-04-03T01:33:44;102420.78;;;4.87;52.26
61761;BME280;47664;51.660;-0.100;2023-04-03T01:36:15;102423.96;;;4.05;52.15
61761;BME280;47664;51.660;-0.100;2023-04-03T01:38:42;102424.73;;;4.63;52.45
61761;BME280;47664;51.660;-0.100;2023-04-03T01:41:09;102425.06;;;3.77;52.74
61761;BME280;47664;51.660;-0.100;2023-04-03T01:43:37;102422.96;;;4.50;52.77
61761;BME280;47664;51.660;-0.100;2023-04-03T01:46:04;102419.94;;;3.70;53.12
61761;BME280;47664;51.660;-0.100;2023-04-03T01:48:32;102419.33;;;4.21;52.92
61761;BME280;47664;51.660;-0.100;2023-04-03T01:50:59;102418.17;;;4.46;52.38
61761;BME280;47664;51.660;-0.100;2023-04-03T01:53:27;102417.18;;;4.39;52.24
61761;BME280;47664;51.660;-0.100;2023-04-03T01:55:54;102418.30;;;4.52;52.28
61761;BME280;47664;51.660;-0.100;2023-04-03T01:58:21;102417.85;;;4.38;52.37
61761;BME280;47664;51.660;-0.100;2023-04-03T02:00:48;102416.93;;;4.49;52.50
61761;BME280;47664;51.660;-0.100;2023-04-03T02:03:15;102419.51;;;4.11;52.28
61761;BME280;47664;51.660;-0.100;2023-04-03T02:05:42;102418.49;;;4.37;52.30
61761;BME280;47664;51.660;-0.100;2023-04-03T02:08:09;102417.61;;;3.92;52.20
61761;BME280;47664;51.660;-0.100;2023-04-03T02:10:37;102413.19;;;4.68;51.96
61761;BME280;47664;51.660;-0.100;2023-04-03T02:13:05;102413.82;;;3.88;52.47
61761;BME280;47664;51.660;-0.100;2023-04-03T02:15:32;102413.76;;;4.03;52.66
61761;BME280;47664;51.660;-0.100;2023-04-03T02:18:00;102412.49;;;4.22;52.62
61761;BME280;47664;51.660;-0.100;2023-04-03T02:20:27;102411.01;;;4.24;52.71
61761;BME280;47664;51.660;-0.100;2023-04-03T02:22:54;102412.41;;;3.96;52.86
61761;BME280;47664;51.660;-0.100;2023-04-03T02:25:21;102412.54;;;3.88;53.04
61761;BME280;47664;51.660;-0.100;2023-04-03T02:27:48;102413.05;;;3.84;53.51
61761;BME280;47664;51.660;-0.100;2023-04-03T02:30:16;102410.95;;;3.49;53.26
61761;BME280;47664;51.660;-0.100;2023-04-03T02:32:43;102414.94;;;3.86;53.29
61761;BME280;47664;51.660;-0.100;2023-04-03T02:35:11;102409.01;;;3.45;53.38
61761;BME280;47664;51.660;-0.100;2023-04-03T02:37:39;102406.81;;;3.85;53.57
61761;BME280;47664;51.660;-0.100;2023-04-03T02:40:07;102406.18;;;3.46;53.37
61761;BME280;47664;51.660;-0.100;2023-04-03T02:42:34;102405.76;;;3.88;53.27
61761;BME280;47664;51.660;-0.100;2023-04-03T02:45:02;102407.35;;;3.31;53.73
61761;BME280;47664;51.660;-0.100;2023-04-03T02:47:29;102403.79;;;3.93;53.37
61761;BME280;47664;51.660;-0.100;2023-04-03T02:49:56;102401.78;;;3.97;53.29
61761;BME280;47664;51.660;-0.100;2023-04-03T02:52:23;102403.68;;;4.01;53.13
61761;BME280;47664;51.660;-0.100;2023-04-03T02:54:50;102398.10;;;4.37;53.37
61761;BME280;47664;51.660;-0.100;2023-04-03T02:57:17;102399.56;;;3.27;54.00
61761;BME280;47664;51.660;-0.100;2023-04-03T02:59:44;102397.41;;;3.79;54.16
61761;BME280;47664;51.660;-0.100;2023-04-03T03:02:11;102398.05;;;3.06;54.20
61761;BME280;47664;51.660;-0.100;2023-04-03T03:04:38;102399.74;;;3.59;53.98
61761;BME280;47664;51.660;-0.100;2023-04-03T03:07:06;102394.61;;;3.29;53.81
61761;BME280;47664;51.660;-0.100;2023-04-03T03:09:33;102395.48;;;3.54;54.09
61761;BME280;47664;51.660;-0.100;2023-04-03T03:12:01;102394.53;;;3.42;53.86
61761;BME280;47664;51.660;-0.100;2023-04-03T03:14:28;102391.77;;;3.80;53.66
61761;BME280;47664;51.660;-0.100;2023-04-03T03:16:55;102391.09;;;4.13;53.39
61761;BME280;47664;51.660;-0.100;2023-04-03T03:19:22;102390.17;;;3.93;53.26
61761;BME280;47664;51.660;-0.100;2023-04-03T03:21:49;102389.23;;;4.14;52.99
61761;BME280;47664;51.660;-0.100;2023-04-03T03:24:17;102385.42;;;3.82;53.09
61761;BME280;47664;51.660;-0.100;2023-04-03T03:26:43;102385.53;;;3.91;53.40
61761;BME280;47664;51.660;-0.100;2023-04-03T03:29:10;102381.38;;;3.67;52.93
61761;BME280;47664;51.660;-0.100;2023-04-03T03:31:37;102379.78;;;4.02;53.06
61761;BME280;47664;51.660;-0.100;2023-04-03T03:34:05;102382.73;;;3.90;52.82
61761;BME280;47664;51.660;-0.100;2023-04-03T03:36:32;102386.29;;;3.97;52.96
61761;BME280;47664;51.660;-0.100;2023-04-03T03:39:00;102387.16;;;3.84;53.04
61761;BME280;47664;51.660;-0.100;2023-04-03T03:41:27;102385.76;;;3.61;53.11
61761;BME280;47664;51.660;-0.100;2023-04-03T03:43:54;102379.37;;;4.04;52.99
61761;BME280;47664;51.660;-0.100;2023-04-03T03:46:21;102378.47;;;3.86;53.10
61761;BME280;47664;51.660;-0.100;2023-04-03T03:48:48;102379.65;;;3.85;53.17
61761;BME280;47664;51.660;-0.100;2023-04-03T03:51:15;102374.77;;;3.35;53.20
61761;BME280;47664;51.660;-0.100;2023-04-03T03:53:43;102376.84;;;4.39;53.04
61761;BME280;47664;51.660;-0.100;2023-04-03T03:56:11;102377.68;;;3.16;53.14
61761;BME280;47664;51.660;-0.100;2023-04-03T03:58:38;102376.09;;;3.86;53.22
61761;BME280;47664;51.660;-0.100;2023-04-03T04:01:06;102373.74;;;3.47;53.02
61761;BME280;47664;51.660;-0.100;2023-04-03T04:03:34;102374.31;;;3.87;53.11
61761;BME280;47664;51.660;-0.100;2023-04-03T04:06:01;102371.30;;;3.47;53.23
61761;BME280;47664;51.660;-0.100;2023-04-03T04:08:29;102373.22;;;3.82;53.21
61761;BME280;47664;51.660;-0.100;2023-04-03T04:10:56;102373.14;;;3.88;53.15
61761;BME280;47664;51.660;-0.100;2023-04-03T04:13:23;102367.74;;;3.67;52.93
61761;BME280;47664;51.660;-0.100;2023-04-03T04:15:50;102367.24;;;4.04;52.83
61761;BME280;47664;51.660;-0.100;2023-04-03T04:18:17;102368.43;;;3.73;52.81
61761;BME280;47664;51.660;-0.100;2023-04-03T04:20:45;102367.86;;;3.79;53.10
61761;BME280;47664;51.660;-0.100;2023-04-03T04:23:12;102366.55;;;3.78;52.68
61761;BME280;47664;51.660;-0.100;2023-04-03T04:25:39;102365.39;;;3.82;53.04
61761;BME280;47664;51.660;-0.100;2023-04-03T04:28:07;102362.96;;;3.33;52.97
61761;BME280;47664;51.660;-0.100;2023-04-03T04:30:34;102370.69;;;3.99;52.72
61761;BME280;47664;51.660;-0.100;2023-04-03T04:33:02;102369.09;;;3.66;53.54
61761;BME280;47664;51.660;-0.100;2023-04-03T04:35:29;102370.59;;;3.73;53.52
61761;BME280;47664;51.660;-0.100;2023-04-03T04:37:56;102373.68;;;3.86;53.20
61761;BME280;47664;51.660;-0.100;2023-04-03T04:40:23;102374.66;;;3.54;53.11
61761;BME280;47664;51.660;-0.100;2023-04-03T04:42:50;102372.41;;;3.94;52.75
61761;BME280;47664;51.660;-0.100;2023-04-03T04:45:18;102373.54;;;3.79;53.11
61761;BME280;47664;51.660;-0.100;2023-04-03T04:47:45;102372.58;;;3.72;53.35
61761;BME280;47664;51.660;-0.100;2023-04-03T04:50:12;102373.22;;;3.43;52.84
61761;BME280;47664;51.660;-0.100;2023-04-03T04:52:40;102376.28;;;3.88;52.98
61761;BME280;47664;51.660;-0.100;2023-04-03T04:55:08;102373.66;;;3.24;52.99
61761;BME280;47664;51.660;-0.100;2023-04-03T04:57:35;102372.76;;;4.03;53.10
61761;BME280;47664;51.660;-0.100;2023-04-03T05:00:03;102371.46;;;3.43;53.21
61761;BME280;47664;51.660;-0.100;2023-04-03T05:02:31;102370.70;;;3.83;53.48
61761;BME280;47664;51.660;-0.100;2023-04-03T05:05:04;102372.46;;;3.84;53.49
61761;BME280;47664;51.660;-0.100;2023-04-03T05:07:32;102372.63;;;3.75;53.84
61761;BME280;47664;51.660;-0.100;2023-04-03T05:09:59;102373.35;;;3.91;53.63
61761;BME280;47664;51.660;-0.100;2023-04-03T05:12:27;102371.77;;;3.95;53.83
61761;BME280;47664;51.660;-0.100;2023-04-03T05:14:54;102374.92;;;3.98;53.85
61761;BME280;47664;51.660;-0.100;2023-04-03T05:17:21;102377.06;;;4.06;53.60
61761;BME280;47664;51.660;-0.100;2023-04-03T05:19:48;102382.95;;;4.24;53.50
61761;BME280;47664;51.660;-0.100;2023-04-03T05:22:15;102381.09;;;3.82;53.87
61761;BME280;47664;51.660;-0.100;2023-04-03T05:24:42;102385.65;;;3.98;53.49
61761;BME280;47664;51.660;-0.100;2023-04-03T05:27:09;102385.83;;;3.13;53.75
61761;BME280;47664;51.660;-0.100;2023-04-03T05:29:37;102386.44;;;3.99;53.79
61761;BME280;47664;51.660;-0.100;2023-04-03T05:32:04;102384.63;;;3.72;53.84
61761;BME280;47664;51.660;-0.100;2023-04-03T05:34:31;102382.55;;;4.17;53.87
61761;BME280;47664;51.660;-0.100;2023-04-03T05:36:59;102388.26;;;4.31;53.78
61761;BME280;47664;51.660;-0.100;2023-04-03T05:39:27;102380.65;;;4.08;54.10
61761;BME280;47664;51.660;-0.100;2023-04-03T05:41:54;102379.43;;;4.13;54.71
61761;BME280;47664;51.660;-0.100;2023-04-03T05:44:21;102375.92;;;3.73;54.67
61761;BME280;47664;51.660;-0.100;2023-04-03T05:46:48;102380.52;;;4.18;54.84
61761;BME280;47664;51.660;-0.100;2023-04-03T05:49:15;102380.88;;;3.65;54.96
61761;BME280;47664;51.660;-0.100;2023-04-03T05:51:43;102377.82;;;3.86;55.18
61761;BME280;47664;51.660;-0.100;2023-04-03T05:54:13;102380.09;;;3.35;55.06
61761;BME280;47664;51.660;-0.100;2023-04-03T05:56:42;102382.67;;;4.14;55.09
61761;BME280;47664;51.660;-0.100;2023-04-03T05:59:09;102384.61;;;3.95;54.69
61761;BME280;47664;51.660;-0.100;2023-04-03T06:01:37;102387.13;;;3.88;55.06
61761;BME280;47664;51.660;-0.100;2023-04-03T06:04:09;102390.46;;;4.24;55.02
61761;BME280;47664;51.660;-0.100;2023-04-03T06:06:47;102390.92;;;4.06;55.01
61761;BME280;47664;51.660;-0.100;2023-04-03T06:09:15;102386.40;;;3.71;55.19
61761;BME280;47664;51.660;-0.100;2023-04-03T06:11:43;102386.80;;;4.04;55.70
61761;BME280;47664;51.660;-0.100;2023-04-03T06:14:11;102389.46;;;3.43;55.50
61761;BME280;47664;51.660;-0.100;2023-04-03T06:16:39;102392.89;;;4.16;55.57
61761;BME280;47664;51.660;-0.100;2023-04-03T06:19:07;102394.63;;;3.65;55.31
61761;BME280;47664;51.660;-0.100;2023-04-03T06:21:35;102396.43;;;4.31;55.37
61761;BME280;47664;51.660;-0.100;2023-04-03T06:24:04;102395.88;;;4.36;55.37
61761;BME280;47664;51.660;-0.100;2023-04-03T06:26:33;102398.06;;;4.37;55.57
61761;BME280;47664;51.660;-0.100;2023-04-03T06:29:01;102396.32;;;4.37;55.45
61761;BME280;47664;51.660;-0.100;2023-04-03T06:31:28;102403.98;;;4.46;55.64
61761;BME280;47664;51.660;-0.100;2023-04-03T06:33:55;102397.78;;;4.43;55.59
61761;BME280;47664;51.660;-0.100;2023-04-03T06:36:22;102400.83;;;4.57;55.30
61761;BME280;47664;51.660;-0.100;2023-04-03T06:38:50;102402.15;;;4.45;55.20
61761;BME280;47664;51.660;-0.100;2023-04-03T06:41:17;102402.28;;;4.53;55.06
61761;BME280;47664;51.660;-0.100;2023-04-03T06:43:44;102402.34;;;4.97;54.80
61761;BME280;47664;51.660;-0.100;2023-04-03T06:46:14;102400.95;;;4.33;54.69
61761;BME280;47664;51.660;-0.100;2023-04-03T06:48:42;102403.73;;;4.93;54.52
61761;BME280;47664;51.660;-0.100;2023-04-03T06:51:16;102407.54;;;4.28;54.63
61761;BME280;47664;51.660;-0.100;2023-04-03T06:53:44;102408.59;;;5.08;54.71
61761;BME280;47664;51.660;-0.100;2023-04-03T06:56:11;102408.17;;;4.32;54.88
61761;BME280;47664;51.660;-0.100;2023-04-03T06:58:39;102405.98;;;4.97;55.14
61761;BME280;47664;51.660;-0.100;2023-04-03T07:01:06;102406.96;;;4.27;54.93
61761;BME280;47664;51.660;-0.100;2023-04-03T07:03:33;102407.01;;;5.29;55.11
61761;BME280;47664;51.660;-0.100;2023-04-03T07:06:01;102413.01;;;5.12;54.94
61761;BME280;47664;51.660;-0.100;2023-04-03T07:08:28;102412.13;;;5.43;54.53
61761;BME280;47664;51.660;-0.100;2023-04-03T07:10:55;102414.10;;;5.26;54.61
61761;BME280;47664;51.660;-0.100;2023-04-03T07:13:22;102413.32;;;5.08;54.71
61761;BME280;47664;51.660;-0.100;2023-04-03T07:15:50;102412.30;;;5.32;54.35
61761;BME280;47664;51.660;-0.100;2023-04-03T07:18:17;102412.71;;;4.82;54.58
61761;BME280;47664;51.660;-0.100;2023-04-03T07:20:44;102409.24;;;5.46;54.67
61761;BME280;47664;51.660;-0.100;2023-04-03T07:23:12;102411.91;;;5.03;54.59
61761;BME280;47664;51.660;-0.100;2023-04-03T07:25:43;102412.96;;;5.39;55.00
61761;BME280;47664;51.660;-0.100;2023-04-03T07:28:11;102411.84;;;4.45;55.49
61761;BME280;47664;51.660;-0.100;2023-04-03T07:30:43;102412.09;;;5.31;55.54
61761;BME280;47664;51.660;-0.100;2023-04-03T07:33:11;102410.02;;;5.15;55.34
61761;BME280;47664;51.660;-0.100;2023-04-03T07:35:39;102414.89;;;5.74;55.30
61761;BME280;47664;51.660;-0.100;2023-04-03T07:38:07;102415.12;;;5.47;55.04
61761;BME280;47664;51.660;-0.100;2023-04-03T07:40:34;102414.13;;;5.49;55.41
61761;BME280;47664;51.660;-0.100;2023-04-03T07:43:03;102410.87;;;5.54;55.72
61761;BME280;47664;51.660;-0.100;2023-04-03T07:45:31;102408.88;;;5.70;55.50
61761;BME280;47664;51.660;-0.100;2023-04-03T07:47:59;102407.31;;;5.37;56.32
61761;BME280;47664;51.660;-0.100;2023-04-03T07:50:27;102409.22;;;5.54;56.00
61761;BME280;47664;51.660;-0.100;2023-04-03T07:52:54;102407.45;;;6.10;55.39
61761;BME280;47664;51.660;-0.100;2023-04-03T07:55:21;102407.41;;;5.69;55.96
61761;BME280;47664;51.660;-0.100;2023-04-03T07:57:48;102409.79;;;6.08;55.55
61761;BME280;47664;51.660;-0.100;2023-04-03T08:00:16;102409.37;;;5.20;56.16
61761;BME280;47664;51.660;-0.100;2023-04-03T08:02:43;102408.33;;;6.26;55.26
61761;BME280;47664;51.660;-0.100;2023-04-03T08:05:11;102411.18;;;5.54;55.12
61761;BME280;47664;51.660;-0.100;2023-04-03T08:07:38;102412.24;;;6.29;54.74
61761;BME280;47664;51.660;-0.100;2023-04-03T08:10:06;102416.50;;;6.08;54.67
61761;BME280;47664;51.660;-0.100;2023-04-03T08:12:33;102416.38;;;6.52;55.46
61761;BME280;47664;51.660;-0.100;2023-04-03T08:15:01;102417.41;;;6.14;56.35
61761;BME280;47664;51.660;-0.100;2023-04-03T08:17:28;102419.65;;;5.79;56.82
61761;BME280;47664;51.660;-0.100;2023-04-03T08:19:55;102420.53;;;6.20;56.51
61761;BME280;47664;51.660;-0.100;2023-04-03T08:22:22;102417.96;;;5.95;56.44
61761;BME280;47664;51.660;-0.100;2023-04-03T08:24:49;102419.28;;;6.52;55.53
61761;BME280;47664;51.660;-0.100;2023-04-03T08:27:17;102418.98;;;6.75;54.86
61761;BME280;47664;51.660;-0.100;2023-04-03T08:29:44;102424.01;;;6.39;55.66
61761;BME280;47664;51.660;-0.100;2023-04-03T08:32:12;102421.87;;;5.93;55.46
61761;BME280;47664;51.660;-0.100;2023-04-03T08:34:39;102417.96;;;6.95;54.99
61761;BME280;47664;51.660;-0.100;2023-04-03T08:37:06;102418.39;;;6.18;55.76
61761;BME280;47664;51.660;-0.100;2023-04-03T08:39:33;102422.73;;;6.46;56.17
61761;BME280;47664;51.660;-0.100;2023-04-03T08:42:05;102420.45;;;7.03;55.87
61761;BME280;47664;51.660;-0.100;2023-04-03T08:44:41;102421.00;;;7.62;55.02
61761;BME280;47664;51.660;-0.100;2023-04-03T08:47:21;102422.10;;;6.50;54.91
61761;BME280;47664;51.660;-0.100;2023-04-03T08:49:52;102422.23;;;7.67;54.78
61761;BME280;47664;51.660;-0.100;2023-04-03T08:52:22;102423.32;;;7.58;54.43
61761;BME280;47664;51.660;-0.100;2023-04-03T08:54:56;102421.99;;;7.57;54.57
61761;BME280;47664;51.660;-0.100;2023-04-03T08:57:29;102423.69;;;7.97;54.52
61761;BME280;47664;51.660;-0.100;2023-04-03T09:00:00;102417.47;;;8.00;54.09
61761;BME280;47664;51.660;-0.100;2023-04-03T09:02:34;102420.34;;;8.02;52.79
61761;BME280;47664;51.660;-0.100;2023-04-03T09:05:09;102418.12;;;8.10;52.13
61761;BME280;47664;51.660;-0.100;2023-04-03T09:07:42;102419.27;;;7.99;52.34
61761;BME280;47664;51.660;-0.100;2023-04-03T09:10:13;102417.45;;;6.94;53.15
61761;BME280;47664;51.660;-0.100;2023-04-03T09:12:44;102418.41;;;7.69;52.88
61761;BME280;47664;51.660;-0.100;2023-04-03T09:15:18;102416.33;;;7.46;52.25
61761;BME280;47664;51.660;-0.100;2023-04-03T09:17:54;102413.38;;;7.81;52.44
61761;BME280;47664;51.660;-0.100;2023-04-03T09:20:30;102406.00;;;7.83;52.76
61761;BME280;47664;51.660;-0.100;2023-04-03T09:23:01;102406.29;;;7.43;54.27
61761;BME280;47664;51.660;-0.100;2023-04-03T09:25:32;102402.83;;;7.53;53.49
61761;BME280;47664;51.660;-0.100;2023-04-03T09:28:01;102399.54;;;7.15;51.91
61761;BME280;47664;51.660;-0.100;2023-04-03T09:30:30;102397.53;;;7.46;52.99
61761;BME280;47664;51.660;-0.100;2023-04-03T09:32:57;102395.04;;;7.99;53.78
61761;BME280;47664;51.660;-0.100;2023-04-03T09:35:27;102398.91;;;8.27;46.90
61761;BME280;47664;51.660;-0.100;2023-04-03T09:38:13;102399.65;;;7.74;45.76
61761;BME280;47664;51.660;-0.100;2023-04-03T09:40:41;102403.64;;;7.13;47.42
61761;BME280;47664;51.660;-0.100;2023-04-03T09:43:28;102397.47;;;6.77;47.90
61761;BME280;47664;51.660;-0.100;2023-04-03T09:46:15;102397.88;;;7.49;48.21
61761;BME280;47664;51.660;-0.100;2023-04-03T09:48:50;102399.11;;;7.26;49.04
61761;BME280;47664;51.660;-0.100;2023-04-03T09:51:17;102397.87;;;6.58;47.64
61761;BME280;47664;51.660;-0.100;2023-04-03T09:53:45;102398.61;;;7.32;48.17
61761;BME280;47664;51.660;-0.100;2023-04-03T09:56:22;102402.84;;;6.44;49.39
61761;BME280;47664;51.660;-0.100;2023-04-03T09:59:07;102404.64;;;7.36;49.58
61761;BME280;47664;51.660;-0.100;2023-04-03T10:01:38;102404.60;;;6.82;50.87
61761;BME280;47664;51.660;-0.100;2023-04-03T10:04:09;102412.69;;;6.16;52.03
61761;BME280;47664;51.660;-0.100;2023-04-03T10:06:40;102415.25;;;7.01;51.53
61761;BME280;47664;51.660;-0.100;2023-04-03T10:09:20;102408.39;;;6.67;50.14
61761;BME280;47664;51.660;-0.100;2023-04-03T10:12:00;102406.45;;;7.20;49.08
61761;BME280;47664;51.660;-0.100;2023-04-03T10:14:27;102405.68;;;7.55;49.39
61761;BME280;47664;51.660;-0.100;2023-04-03T10:17:02;102408.30;;;7.85;49.63
61761;BME280;47664;51.660;-0.100;2023-04-03T10:19:40;102406.08;;;7.84;49.24
61761;BME280;47664;51.660;-0.100;2023-04-03T10:22:17;102405.10;;;7.08;48.43
61761;BME280;47664;51.660;-0.100;2023-04-03T10:24:54;102404.11;;;7.77;49.54
61761;BME280;47664;51.660;-0.100;2023-04-03T10:27:32;102402.23;;;8.21;48.46
61761;BME280;47664;51.660;-0.100;2023-04-03T10:30:18;102401.21;;;7.54;48.70
61761;BME280;47664;51.660;-0.100;2023-04-03T10:32:55;102400.46;;;7.46;49.73
61761;BME280;47664;51.660;-0.100;2023-04-03T10:35:34;102397.37;;;6.84;49.75
61761;BME280;47664;51.660;-0.100;2023-04-03T10:38:12;102404.62;;;7.95;49.45
61761;BME280;47664;51.660;-0.100;2023-04-03T10:40:50;102403.79;;;7.94;48.08
61761;BME280;47664;51.660;-0.100;2023-04-03T10:43:27;102404.21;;;7.78;48.23
61761;BME280;47664;51.660;-0.100;2023-04-03T10:46:02;102403.87;;;7.93;47.98
61761;BME280;47664;51.660;-0.100;2023-04-03T10:48:42;102401.19;;;8.35;48.19
61761;BME280;47664;51.660;-0.100;2023-04-03T10:51:23;102395.48;;;8.34;46.25
61761;BME280;47664;51.660;-0.100;2023-04-03T10:53:57;102396.55;;;7.99;46.83
61761;BME280;47664;51.660;-0.100;2023-04-03T10:56:31;102393.81;;;7.87;47.60
61761;BME280;47664;51.660;-0.100;2023-04-03T10:59:15;102390.62;;;7.44;47.74
61761;BME280;47664;51.660;-0.100;2023-04-03T11:01:46;102391.86;;;7.94;47.82
61761;BME280;47664;51.660;-0.100;2023-04-03T11:04:16;102386.33;;;8.03;47.50
61761;BME280;47664;51.660;-0.100;2023-04-03T11:06:47;102388.17;;;7.69;48.50
61761;BME280;47664;51.660;-0.100;2023-04-03T11:09:22;102390.80;;;7.89;48.46
61761;BME280;47664;51.660;-0.100;2023-04-03T11:11:56;102390.97;;;8.20;48.21
61761;BME280;47664;51.660;-0.100;2023-04-03T11:14:29;102385.62;;;7.88;48.17
61761;BME280;47664;51.660;-0.100;2023-04-03T11:17:05;102386.36;;;8.02;48.20
61761;BME280;47664;51.660;-0.100;2023-04-03T11:19:39;102376.31;;;8.14;47.52
61761;BME280;47664;51.660;-0.100;2023-04-03T11:22:14;102377.56;;;7.60;48.17
61761;BME280;47664;51.660;-0.100;2023-04-03T11:24:54;102371.64;;;8.26;46.41
61761;BME280;47664;51.660;-0.100;2023-04-03T11:27:24;102368.88;;;7.98;46.51
61761;BME280;47664;51.660;-0.100;2023-04-03T11:29:53;102367.95;;;9.09;45.69
61761;BME280;47664;51.660;-0.100;2023-04-03T11:32:34;102360.60;;;9.15;43.65
61761;BME280;47664;51.660;-0.100;2023-04-03T11:35:06;102361.44;;;8.97;41.70
61761;BME280;47664;51.660;-0.100;2023-04-03T11:37:39;102363.12;;;9.15;41.96
61761;BME280;47664;51.660;-0.100;2023-04-03T11:40:20;102361.32;;;8.60;43.76
61761;BME280;47664;51.660;-0.100;2023-04-03T11:42:51;102355.04;;;8.96;43.28
61761;BME280;47664;51.660;-0.100;2023-04-03T11:45:31;102357.63;;;9.12;42.20
61761;BME280;47664;51.660;-0.100;2023-04-03T11:48:00;102357.86;;;9.40;42.11
61761;BME280;47664;51.660;-0.100;2023-04-03T11:50:40;102356.93;;;9.48;42.89
61761;BME280;47664;51.660;-0.100;2023-04-03T11:53:40;102350.25;;;8.54;42.75
61761;BME280;47664;51.660;-0.100;2023-04-03T11:56:40;102351.29;;;8.16;44.21
61761;BME280;47664;51.660;-0.100;2023-04-03T11:59:24;102349.25;;;7.75;44.69
61761;BME280;47664;51.660;-0.100;2023-04-03T12:01:52;102344.78;;;8.56;43.80
61761;BME280;47664;51.660;-0.100;2023-04-03T12:04:21;102344.67;;;8.73;43.34
61761;BME280;47664;51.660;-0.100;2023-04-03T12:06:54;102344.66;;;9.07;43.74
61761;BME280;47664;51.660;-0.100;2023-04-03T12:09:29;102341.77;;;8.87;43.22
61761;BME280;47664;51.660;-0.100;2023-04-03T12:12:01;102339.57;;;8.82;43.26
61761;BME280;47664;51.660;-0.100;2023-04-03T12:14:48;102333.09;;;8.13;43.38
61761;BME280;47664;51.660;-0.100;2023-04-03T12:17:22;102326.72;;;7.77;43.34
61761;BME280;47664;51.660;-0.100;2023-04-03T12:19:50;102328.62;;;8.42;44.11
61761;BME280;47664;51.660;-0.100;2023-04-03T12:22:18;102328.70;;;8.37;42.21
61761;BME280;47664;51.660;-0.100;2023-04-03T12:24:47;102327.54;;;9.17;41.99
61761;BME280;47664;51.660;-0.100;2023-04-03T12:27:25;102322.23;;;8.56;43.34
61761;BME280;47664;51.660;-0.100;2023-04-03T12:29:59;102319.01;;;9.11;43.10
61761;BME280;47664;51.660;-0.100;2023-04-03T12:32:43;102311.46;;;9.14;41.50
61761;BME280;47664;51.660;-0.100;2023-04-03T12:35:22;102316.84;;;8.72;42.34
61761;BME280;47664;51.660;-0.100;2023-04-03T12:38:20;102312.69;;;10.04;41.05
61761;BME280;47664;51.660;-0.100;2023-04-03T12:40:58;102308.21;;;9.55;41.22
61761;BME280;47664;51.660;-0.100;2023-04-03T12:43:41;102306.62;;;9.92;39.95
61761;BME280;47664;51.660;-0.100;2023-04-03T12:46:14;102303.74;;;9.17;40.84
61761;BME280;47664;51.660;-0.100;2023-04-03T12:48:49;102304.96;;;9.58;41.45
61761;BME280;47664;51.660;-0.100;2023-04-03T12:51:19;102302.48;;;9.82;41.10
61761;BME280;47664;51.660;-0.100;2023-04-03T12:53:49;102289.47;;;9.67;40.87
61761;BME280;47664;51.660;-0.100;2023-04-03T12:56:22;102293.61;;;9.37;40.11
61761;BME280;47664;51.660;-0.100;2023-04-03T12:58:51;102293.06;;;9.44;39.99
61761;BME280;47664;51.660;-0.100;2023-04-03T13:01:21;102291.37;;;8.85;39.77
61761;BME280;47664;51.660;-0.100;2023-04-03T13:03:51;102286.83;;;9.42;40.89
61761;BME280;47664;51.660;-0.100;2023-04-03T13:06:21;102287.56;;;8.94;41.17